createdAt,value
2019-05-13T00:00:16.721Z,8.10
2019-05-13T00:02:45.123Z,8.10
2019-05-13T00:05:14.673Z,8.10
2019-05-13T00:07:44.028Z,8.10
2019-05-13T00:10:14.780Z,8.00
2019-05-13T00:12:44.626Z,8.00
2019-05-13T00:15:14.231Z,8.00
2019-05-13T00:17:44.707Z,8.00
2019-05-13T00:20:14.053Z,7.90
2019-05-13T00:22:44.602Z,7.90
2019-05-13T00:25:14.715Z,7.80
2019-05-13T00:27:44.465Z,7.80
2019-05-13T00:30:14.642Z,7.70
2019-05-13T00:32:44.588Z,7.80
2019-05-13T00:35:14.211Z,7.70
2019-05-13T00:37:44.314Z,7.70
2019-05-13T00:40:14.364Z,7.60
2019-05-13T00:42:44.183Z,7.60
2019-05-13T00:45:14.630Z,7.60
2019-05-13T00:47:44.007Z,7.50
2019-05-13T00:50:14.283Z,7.50
2019-05-13T00:52:44.828Z,7.50
2019-05-13T00:55:14.692Z,7.40
2019-05-13T00:57:43.894Z,7.40
2019-05-13T01:00:14.114Z,7.40
2019-05-13T01:02:44.561Z,7.40
2019-05-13T01:05:14.652Z,7.30
2019-05-13T01:07:44.326Z,7.30
2019-05-13T01:10:13.486Z,7.30
2019-05-13T01:12:44.046Z,7.20
2019-05-13T01:15:14.958Z,7.20
2019-05-13T01:17:44.726Z,7.20
2019-05-13T01:20:14.593Z,7.20
2019-05-13T01:22:44.091Z,7.10
2019-05-13T01:25:14.500Z,7.10
2019-05-13T01:27:44.296Z,7.10
2019-05-13T01:30:13.451Z,7.00
2019-05-13T01:32:44.614Z,7.00
2019-05-13T01:35:14.880Z,7.00
2019-05-13T01:37:45.940Z,7.00
2019-05-13T01:40:14.425Z,6.90
2019-05-13T01:42:44.397Z,6.90
2019-05-13T01:45:13.981Z,6.90
2019-05-13T01:47:43.997Z,6.80
2019-05-13T01:50:14.322Z,6.80
2019-05-13T01:52:44.662Z,6.80
2019-05-13T01:55:14.515Z,6.70
2019-05-13T01:57:44.331Z,6.70
2019-05-13T02:00:14.748Z,6.70
2019-05-13T02:02:44.574Z,6.70
2019-05-13T02:05:14.145Z,6.60
2019-05-13T02:07:54.526Z,6.60
2019-05-13T02:10:15.041Z,6.60
2019-05-13T02:12:44.665Z,6.60
2019-05-13T02:15:14.618Z,6.60
2019-05-13T02:17:44.596Z,6.50
2019-05-13T02:20:14.899Z,6.50
2019-05-13T02:22:44.426Z,6.50
2019-05-13T02:25:13.933Z,6.50
2019-05-13T02:27:44.135Z,6.50
2019-05-13T02:30:16.080Z,6.50
2019-05-13T02:32:43.337Z,6.40
2019-05-13T02:35:14.062Z,6.40
2019-05-13T02:37:43.403Z,6.40
2019-05-13T02:40:13.430Z,6.40
2019-05-13T02:42:43.628Z,6.40
2019-05-13T02:45:13.384Z,6.40
2019-05-13T02:47:44.133Z,6.40
2019-05-13T02:50:13.329Z,6.40
2019-05-13T02:52:44.441Z,6.40
2019-05-13T02:55:12.620Z,6.40
2019-05-13T02:57:43.799Z,6.30
2019-05-13T03:00:12.876Z,6.30
2019-05-13T03:02:43.974Z,6.30
2019-05-13T03:05:13.793Z,6.30
2019-05-13T03:07:43.373Z,6.30
2019-05-13T03:10:13.949Z,6.30
2019-05-13T03:12:42.883Z,6.30
2019-05-13T03:15:13.617Z,6.30
2019-05-13T03:17:53.459Z,6.30
2019-05-13T03:20:22.891Z,6.30
2019-05-13T03:22:52.848Z,6.20
2019-05-13T03:25:22.690Z,6.20
2019-05-13T03:27:54.079Z,6.20
2019-05-13T03:30:25.418Z,6.20
2019-05-13T03:33:00.641Z,6.20
2019-05-13T03:35:26.982Z,6.20
2019-05-13T03:37:53.378Z,6.20
2019-05-13T03:40:23.065Z,6.10
2019-05-13T03:42:53.649Z,6.20
2019-05-13T03:45:24.440Z,6.10
2019-05-13T03:47:55.515Z,6.10
2019-05-13T03:50:24.036Z,6.10
2019-05-13T03:52:52.794Z,6.10
2019-05-13T03:55:23.147Z,6.10
2019-05-13T03:57:53.237Z,6.10
2019-05-13T04:00:23.520Z,6.10
2019-05-13T04:02:53.200Z,6.10
2019-05-13T04:05:23.243Z,6.10
2019-05-13T04:07:52.638Z,6.10
2019-05-13T04:10:22.962Z,6.10
2019-05-13T04:12:53.043Z,6.10
2019-05-13T04:15:23.433Z,6.10
2019-05-13T04:17:53.316Z,6.00
2019-05-13T04:20:23.233Z,6.00
2019-05-13T04:22:53.075Z,6.00
2019-05-13T04:25:23.333Z,6.00
2019-05-13T04:27:53.288Z,6.00
2019-05-13T04:30:22.652Z,6.00
2019-05-13T04:32:53.432Z,6.00
2019-05-13T04:35:23.395Z,6.00
2019-05-13T04:37:52.962Z,6.00
2019-05-13T04:40:23.221Z,6.00
2019-05-13T04:42:53.402Z,6.10
2019-05-13T04:45:23.813Z,6.10
2019-05-13T04:47:53.081Z,6.10
2019-05-13T04:50:22.593Z,6.10
2019-05-13T04:52:52.790Z,6.20
2019-05-13T04:55:22.971Z,6.20
2019-05-13T04:57:53.293Z,6.30
2019-05-13T05:00:49.861Z,6.30
2019-05-13T05:03:41.340Z,6.30
2019-05-13T05:06:12.017Z,6.40
2019-05-13T05:08:52.671Z,6.40
2019-05-13T05:11:32.627Z,6.40
2019-05-13T05:14:22.597Z,6.40
2019-05-13T05:17:02.928Z,6.40
2019-05-13T05:19:47.363Z,6.50
2019-05-13T05:22:32.185Z,6.50
2019-05-13T05:25:03.701Z,6.50
2019-05-13T05:27:35.258Z,6.50
2019-05-13T05:30:26.334Z,6.60
2019-05-13T05:33:03.737Z,6.60
2019-05-13T05:36:04.262Z,6.60
2019-05-13T05:38:53.443Z,6.70
2019-05-13T05:41:24.886Z,6.70
2019-05-13T05:43:55.542Z,6.80
2019-05-13T05:46:26.389Z,6.80
2019-05-13T05:48:57.902Z,6.90
2019-05-13T05:51:27.598Z,6.90
2019-05-13T05:53:57.617Z,7.00
2019-05-13T05:56:29.225Z,7.00
2019-05-13T05:59:02.732Z,7.10
2019-05-13T06:01:32.538Z,7.10
2019-05-13T06:04:01.546Z,7.10
2019-05-13T06:06:32.897Z,7.20
2019-05-13T06:09:01.871Z,7.20
2019-05-13T06:11:32.925Z,7.30
2019-05-13T06:14:02.292Z,7.30
2019-05-13T06:16:32.041Z,7.40
2019-05-13T06:19:01.406Z,7.40
2019-05-13T06:21:32.117Z,7.40
2019-05-13T06:24:02.774Z,7.50
2019-05-13T06:26:31.455Z,7.50
2019-05-13T06:29:02.539Z,7.60
2019-05-13T06:31:32.307Z,7.70
2019-05-13T06:34:02.073Z,7.70
2019-05-13T06:36:31.649Z,7.80
2019-05-13T06:39:02.248Z,7.90
2019-05-13T06:41:32.373Z,7.90
2019-05-13T06:44:02.302Z,8.00
2019-05-13T06:46:32.299Z,8.10
2019-05-13T06:49:02.858Z,8.20
2019-05-13T06:51:31.454Z,8.30
2019-05-13T06:54:02.245Z,8.40
2019-05-13T06:56:32.308Z,9.00
2019-05-13T06:59:01.467Z,10.20
2019-05-13T07:01:32.263Z,11.60
2019-05-13T07:04:02.343Z,13.00
2019-05-13T07:06:32.315Z,14.20
2019-05-13T07:09:01.401Z,15.30
2019-05-13T07:11:31.421Z,16.20
2019-05-13T07:14:02.381Z,16.90
2019-05-13T07:16:31.750Z,17.40
2019-05-13T07:19:02.618Z,18.00
2019-05-13T07:21:32.325Z,18.60
2019-05-13T07:24:02.230Z,19.10
2019-05-13T07:26:31.624Z,19.60
2019-05-13T07:29:03.339Z,20.10
2019-05-13T07:31:32.371Z,20.60
2019-05-13T07:34:02.476Z,21.00
2019-05-13T07:36:31.763Z,21.20
2019-05-13T07:39:01.519Z,21.50
2019-05-13T07:41:36.441Z,21.80
2019-05-13T07:44:02.439Z,22.00
2019-05-13T07:46:32.251Z,22.30
2019-05-13T07:49:02.120Z,22.40
2019-05-13T07:51:31.637Z,22.60
2019-05-13T07:54:02.186Z,22.60
2019-05-13T07:56:32.446Z,22.60
2019-05-13T07:59:01.748Z,22.60
2019-05-13T08:01:32.791Z,22.60
2019-05-13T08:04:02.156Z,22.60
2019-05-13T08:06:32.331Z,22.50
2019-05-13T08:09:01.715Z,22.30
2019-05-13T08:11:36.809Z,22.30
2019-05-13T08:14:01.812Z,22.30
2019-05-13T08:16:32.275Z,22.30
2019-05-13T08:19:01.813Z,22.20
2019-05-13T08:21:32.279Z,22.20
2019-05-13T08:24:02.801Z,22.20
2019-05-13T08:26:32.251Z,22.30
2019-05-13T08:29:05.383Z,22.20
2019-05-13T08:31:32.266Z,22.20
2019-05-13T08:34:02.518Z,22.30
2019-05-13T08:36:32.724Z,22.30
2019-05-13T08:39:02.601Z,22.30
2019-05-13T08:41:32.243Z,22.40
2019-05-13T08:44:01.742Z,22.40
2019-05-13T08:46:32.255Z,22.60
2019-05-13T08:49:03.770Z,22.60
2019-05-13T08:51:33.989Z,22.50
2019-05-13T08:54:02.439Z,22.50
2019-05-13T08:56:32.601Z,22.40
2019-05-13T08:59:01.307Z,22.40
2019-05-13T09:01:31.937Z,22.50
2019-05-13T09:04:02.303Z,22.50
2019-05-13T09:06:31.262Z,22.60
2019-05-13T09:09:01.813Z,22.70
2019-05-13T09:11:32.207Z,22.70
2019-05-13T09:14:02.357Z,22.80
2019-05-13T09:16:32.005Z,22.90
2019-05-13T09:19:03.877Z,22.90
2019-05-13T09:21:32.486Z,22.90
2019-05-13T09:24:02.198Z,22.80
2019-05-13T09:26:31.678Z,22.80
2019-05-13T09:29:01.436Z,23.00
2019-05-13T09:31:32.423Z,23.10
2019-05-13T09:34:01.429Z,23.30
2019-05-13T09:36:32.306Z,23.50
2019-05-13T09:39:02.141Z,23.70
2019-05-13T09:41:32.296Z,23.90
2019-05-13T09:44:02.039Z,24.00
2019-05-13T09:46:31.901Z,24.10
2019-05-13T09:49:15.083Z,24.20
2019-05-13T09:51:32.325Z,24.30
2019-05-13T09:54:01.400Z,24.60
2019-05-13T09:56:31.915Z,24.70
2019-05-13T09:59:01.825Z,24.80
2019-05-13T10:01:31.984Z,24.90
2019-05-13T10:04:02.955Z,24.90
2019-05-13T10:06:32.739Z,24.90
2019-05-13T10:09:02.245Z,24.90
2019-05-13T10:11:30.929Z,25.00
2019-05-13T10:14:01.816Z,25.10
2019-05-13T10:16:31.412Z,25.00
2019-05-13T10:19:01.690Z,25.00
2019-05-13T10:21:32.743Z,25.10
2019-05-13T10:24:00.626Z,25.10
2019-05-13T10:26:31.946Z,25.20
2019-05-13T10:29:00.463Z,25.30
2019-05-13T10:31:31.248Z,25.40
2019-05-13T10:34:02.008Z,25.50
2019-05-13T10:36:29.226Z,25.50
2019-05-13T10:38:57.643Z,25.50
2019-05-13T10:41:26.454Z,25.40
2019-05-13T10:43:54.891Z,25.40
2019-05-13T10:46:23.455Z,25.40
2019-05-13T10:48:54.774Z,25.50
2019-05-13T10:51:23.222Z,25.60
2019-05-13T10:53:53.564Z,25.70
2019-05-13T10:56:21.873Z,25.70
2019-05-13T10:58:53.485Z,25.80
2019-05-13T11:03:52.465Z,25.90
2019-05-13T11:06:21.887Z,25.90
2019-05-13T11:08:53.051Z,26.00
2019-05-13T11:11:21.897Z,26.10
2019-05-13T11:13:58.740Z,26.20
2019-05-13T11:16:22.527Z,26.20
2019-05-13T11:18:51.870Z,26.20
2019-05-13T11:21:22.269Z,26.20
2019-05-13T11:23:51.810Z,26.20
2019-05-13T11:26:22.156Z,26.30
2019-05-13T11:28:52.099Z,26.30
2019-05-13T11:31:22.423Z,26.20
2019-05-13T11:33:51.985Z,26.10
2019-05-13T11:36:23.292Z,25.90
2019-05-13T11:38:53.182Z,25.80
2019-05-13T11:41:22.905Z,25.80
2019-05-13T11:44:09.280Z,25.80
2019-05-13T11:46:22.523Z,25.90
2019-05-13T11:48:52.064Z,26.10
2019-05-13T11:51:24.013Z,26.20
2019-05-13T11:53:52.462Z,26.30
2019-05-13T11:56:23.015Z,26.50
2019-05-13T11:58:53.430Z,26.70
2019-05-13T12:01:22.867Z,26.80
2019-05-13T12:03:53.205Z,26.90
2019-05-13T12:06:23.336Z,27.00
2019-05-13T12:08:55.217Z,27.00
2019-05-13T12:11:22.559Z,27.00
2019-05-13T12:16:24.194Z,27.10
2019-05-13T12:18:53.016Z,27.10
2019-05-13T12:21:21.661Z,27.10
2019-05-13T12:23:52.756Z,27.00
2019-05-13T12:26:23.450Z,26.90
2019-05-13T12:28:53.542Z,26.90
2019-05-13T12:31:22.304Z,26.90
2019-05-13T12:33:52.201Z,26.70
2019-05-13T12:36:23.663Z,26.60
2019-05-13T12:38:53.533Z,26.60
2019-05-13T12:41:23.060Z,26.50
2019-05-13T12:43:53.932Z,26.60
2019-05-13T12:46:24.832Z,26.60
2019-05-13T12:48:52.155Z,26.50
2019-05-13T12:51:22.702Z,26.30
2019-05-13T12:53:52.753Z,26.20
2019-05-13T12:58:51.945Z,26.10
2019-05-13T13:01:23.862Z,26.10
2019-05-13T13:03:50.978Z,26.10
2019-05-13T13:06:31.295Z,26.10
2019-05-13T13:08:50.770Z,26.20
2019-05-13T13:11:22.542Z,26.20
2019-05-13T13:13:59.147Z,26.20
2019-05-13T13:16:19.811Z,26.20
2019-05-13T13:18:48.244Z,26.20
2019-05-13T13:21:16.662Z,26.30
2019-05-13T13:23:45.109Z,26.30
2019-05-13T13:26:15.986Z,26.40
2019-05-13T13:28:43.861Z,26.40
2019-05-13T13:31:13.126Z,26.30
2019-05-13T13:33:44.504Z,26.30
2019-05-13T13:36:15.618Z,26.20
2019-05-13T13:38:43.714Z,26.10
2019-05-13T13:41:21.950Z,26.10
2019-05-13T13:43:42.622Z,26.20
2019-05-13T13:46:25.144Z,26.00
2019-05-13T13:48:43.799Z,25.90
2019-05-13T13:51:14.117Z,25.80
2019-05-13T13:53:44.364Z,25.80
2019-05-13T13:56:14.523Z,25.70
2019-05-13T13:58:43.791Z,25.80
2019-05-13T14:01:18.541Z,26.00
2019-05-13T14:03:46.166Z,26.00
2019-05-13T14:06:12.736Z,25.90
2019-05-13T14:06:26.943Z,25.90
2019-05-13T14:06:35.508Z,26.10
2019-05-13T14:07:06.049Z,27.00
2019-05-13T14:08:41.629Z,25.90
2019-05-13T14:11:11.632Z,25.90
2019-05-13T14:13:42.521Z,25.80
2019-05-13T14:16:24.763Z,25.80
2019-05-13T14:18:42.109Z,25.80
2019-05-13T14:21:10.775Z,25.70
2019-05-13T14:23:39.566Z,25.60
2019-05-13T14:26:08.092Z,25.50
2019-05-13T14:28:36.575Z,25.40
2019-05-13T14:31:05.154Z,25.50
2019-05-13T14:33:35.534Z,25.60
2019-05-13T14:36:03.841Z,25.70
2019-05-13T14:38:32.924Z,25.70
2019-05-13T14:41:03.479Z,25.60
2019-05-13T14:43:32.162Z,25.50
2019-05-13T14:46:02.318Z,25.40
2019-05-13T14:48:32.911Z,25.40
2019-05-13T14:51:01.887Z,25.30
2019-05-13T14:53:32.214Z,25.20
2019-05-13T14:56:03.066Z,25.00
2019-05-13T14:58:32.470Z,25.00
2019-05-13T15:01:12.566Z,25.00
2019-05-13T15:03:33.019Z,25.00
2019-05-13T15:06:02.141Z,24.90
2019-05-13T15:08:32.821Z,24.90
2019-05-13T15:11:01.861Z,24.80
2019-05-13T15:13:31.892Z,24.70
2019-05-13T15:16:00.730Z,24.60
2019-05-13T15:18:29.248Z,24.60
2019-05-13T15:20:58.044Z,24.60
2019-05-13T15:23:26.593Z,24.50
2019-05-13T15:25:55.036Z,24.50
2019-05-13T15:28:23.446Z,24.40
2019-05-13T15:30:51.937Z,24.40
2019-05-13T15:33:21.549Z,24.30
2019-05-13T15:35:51.978Z,24.20
2019-05-13T15:38:21.183Z,24.10
2019-05-13T15:40:52.187Z,24.00
2019-05-13T15:43:22.350Z,23.70
2019-05-13T15:45:51.423Z,23.60
2019-05-13T15:48:21.671Z,23.60
2019-05-13T15:50:51.299Z,23.50
2019-05-13T15:53:21.480Z,23.50
2019-05-13T15:55:51.664Z,23.50
2019-05-13T15:58:38.039Z,23.50
2019-05-13T16:00:52.720Z,23.60
2019-05-13T16:03:21.587Z,23.40
2019-05-13T16:05:51.641Z,23.40
2019-05-13T16:08:20.491Z,23.30
2019-05-13T16:10:49.026Z,23.20
2019-05-13T16:13:17.650Z,23.10
2019-05-13T16:15:46.082Z,22.90
2019-05-13T16:18:14.537Z,22.80
2019-05-13T16:20:45.385Z,22.70
2019-05-13T16:23:13.126Z,22.60
2019-05-13T16:25:41.868Z,22.40
2019-05-13T16:28:11.866Z,22.30
2019-05-13T16:30:42.042Z,22.20
2019-05-13T16:33:12.197Z,22.10
2019-05-13T16:35:42.462Z,21.90
2019-05-13T16:38:11.391Z,21.80
2019-05-13T16:40:42.352Z,21.70
2019-05-13T16:43:12.862Z,21.70
2019-05-13T16:45:42.370Z,21.60
2019-05-13T16:48:12.362Z,21.60
2019-05-13T16:50:41.832Z,21.50
2019-05-13T16:53:10.514Z,21.50
2019-05-13T16:55:38.958Z,21.30
2019-05-13T16:58:07.388Z,21.20
2019-05-13T17:00:35.880Z,21.20
2019-05-13T17:03:05.349Z,21.20
2019-05-13T17:05:33.791Z,21.00
2019-05-13T17:08:02.277Z,21.00
2019-05-13T17:10:31.611Z,21.00
2019-05-13T17:13:02.909Z,20.90
2019-05-13T17:15:31.235Z,20.80
2019-05-13T17:18:09.256Z,20.60
2019-05-13T17:20:32.074Z,20.50
2019-05-13T17:23:01.832Z,20.40
2019-05-13T17:25:30.526Z,20.20
2019-05-13T17:27:58.941Z,20.10
2019-05-13T17:30:27.359Z,20.00
2019-05-13T17:32:55.806Z,19.90
2019-05-13T17:35:24.226Z,19.70
2019-05-13T17:37:53.114Z,19.60
2019-05-13T17:40:22.423Z,19.40
2019-05-13T17:42:51.239Z,19.20
2019-05-13T17:45:21.831Z,19.10
2019-05-13T17:47:51.872Z,19.00
2019-05-13T17:50:22.090Z,18.90
2019-05-13T17:52:51.391Z,18.80
2019-05-13T17:55:22.074Z,18.70
2019-05-13T17:57:50.200Z,18.60
2019-05-13T18:00:18.682Z,18.50
2019-05-13T18:02:47.279Z,18.40
2019-05-13T18:05:15.980Z,18.20
2019-05-13T18:07:44.387Z,18.10
2019-05-13T18:10:14.438Z,18.00
2019-05-13T18:12:43.181Z,17.90
2019-05-13T18:15:11.990Z,17.80
2019-05-13T18:17:41.839Z,17.70
2019-05-13T18:20:11.564Z,17.60
2019-05-13T18:22:42.016Z,17.50
2019-05-13T18:25:12.022Z,17.30
2019-05-13T18:27:41.604Z,17.20
2019-05-13T18:30:11.436Z,17.00
2019-05-13T18:32:40.141Z,16.90
2019-05-13T18:35:12.084Z,16.80
2019-05-13T18:37:41.961Z,16.70
2019-05-13T18:40:11.580Z,16.50
2019-05-13T18:42:42.111Z,16.40
2019-05-13T18:45:11.866Z,16.40
2019-05-13T18:47:40.305Z,16.30
2019-05-13T18:50:11.336Z,16.20
2019-05-13T18:52:41.809Z,16.00
2019-05-13T18:55:12.213Z,15.90
2019-05-13T18:57:39.823Z,15.80
2019-05-13T19:00:08.376Z,15.70
2019-05-13T19:02:36.807Z,15.50
2019-05-13T19:05:06.639Z,15.40
2019-05-13T19:07:35.068Z,15.30
2019-05-13T19:10:04.241Z,15.20
2019-05-13T19:12:32.717Z,15.10
2019-05-13T19:15:02.433Z,15.10
2019-05-13T19:17:32.219Z,14.90
2019-05-13T19:20:00.951Z,14.80
2019-05-13T19:22:31.653Z,14.70
2019-05-13T19:25:01.104Z,14.70
2019-05-13T19:27:31.944Z,14.50
2019-05-13T19:30:01.373Z,14.40
2019-05-13T19:32:32.334Z,14.40
2019-05-13T19:35:02.592Z,14.30
2019-05-13T19:37:31.710Z,14.20
2019-05-13T19:40:01.201Z,14.10
2019-05-13T19:42:31.352Z,14.00
2019-05-13T19:45:01.956Z,13.90
2019-05-13T19:47:30.208Z,13.90
2019-05-13T19:49:58.620Z,13.80
2019-05-13T19:52:27.038Z,13.80
2019-05-13T19:54:55.476Z,13.70
2019-05-13T19:57:23.952Z,13.60
2019-05-13T19:59:52.446Z,13.50
2019-05-13T20:02:22.359Z,13.40
2019-05-13T20:04:51.832Z,13.40
2019-05-13T20:07:22.407Z,13.30
2019-05-13T20:09:51.868Z,13.20
2019-05-13T20:12:21.248Z,13.20
2019-05-13T20:14:51.600Z,13.10
2019-05-13T20:17:19.866Z,13.00
2019-05-13T20:19:51.464Z,13.00
2019-05-13T20:22:18.484Z,12.90
2019-05-13T20:24:46.915Z,12.80
2019-05-13T20:27:15.330Z,12.80
2019-05-13T20:29:43.772Z,12.70
2019-05-13T20:32:12.221Z,12.70
2019-05-13T20:34:40.656Z,12.60
2019-05-13T20:37:12.413Z,12.50
2019-05-13T20:39:42.477Z,12.50
2019-05-13T20:42:12.471Z,12.40
2019-05-13T20:44:41.976Z,12.40
2019-05-13T20:47:11.764Z,12.30
2019-05-13T20:49:41.744Z,12.30
2019-05-13T20:52:14.681Z,12.20
2019-05-13T20:54:41.775Z,12.20
2019-05-13T20:57:10.252Z,12.10
2019-05-13T20:59:41.187Z,12.10
2019-05-13T21:02:08.959Z,12.10
2019-05-13T21:04:38.910Z,12.00
2019-05-13T21:07:07.333Z,12.00
2019-05-13T21:09:35.908Z,11.90
2019-05-13T21:12:05.302Z,11.90
2019-05-13T21:14:33.765Z,11.90
2019-05-13T21:17:02.209Z,11.80
2019-05-13T21:19:39.417Z,11.80
2019-05-13T21:22:03.050Z,11.70
2019-05-13T21:24:32.008Z,11.60
2019-05-13T21:27:01.940Z,11.60
2019-05-13T21:29:32.298Z,11.60
2019-05-13T21:32:01.222Z,11.50
2019-05-13T21:34:31.620Z,11.50
2019-05-13T21:37:02.106Z,11.40
2019-05-13T21:39:31.956Z,11.30
2019-05-13T21:42:02.268Z,11.30
2019-05-13T21:44:32.481Z,11.20
2019-05-13T21:47:02.134Z,11.20
2019-05-13T21:49:31.918Z,11.10
2019-05-13T21:52:00.929Z,11.10
2019-05-13T21:54:33.210Z,11.10
2019-05-13T21:57:02.050Z,11.00
2019-05-13T21:59:31.885Z,11.00
2019-05-13T22:02:01.591Z,10.90
2019-05-13T22:04:30.120Z,10.90
2019-05-13T22:06:58.537Z,10.80
2019-05-13T22:09:26.966Z,10.80
2019-05-13T22:11:55.395Z,10.70
2019-05-13T22:14:23.812Z,10.70
2019-05-13T22:16:52.335Z,10.70
2019-05-13T22:19:22.301Z,10.60
2019-05-13T22:21:51.532Z,10.60
2019-05-13T22:24:21.730Z,10.50
2019-05-13T22:26:51.198Z,10.50
2019-05-13T22:29:22.983Z,10.40
2019-05-13T22:31:51.192Z,10.40
2019-05-13T22:34:21.363Z,10.30
2019-05-13T22:36:51.709Z,10.30
2019-05-13T22:39:22.023Z,10.20
2019-05-13T22:41:52.290Z,10.20
2019-05-13T22:44:21.763Z,10.20
2019-05-13T22:46:51.754Z,10.10
2019-05-13T22:49:22.090Z,10.10
2019-05-13T22:51:51.547Z,10.00
2019-05-13T22:54:21.182Z,10.00
2019-05-13T22:56:52.059Z,9.90
2019-05-13T22:59:21.466Z,9.90
2019-05-13T23:01:52.188Z,9.80
2019-05-13T23:04:20.289Z,9.80
2019-05-13T23:06:51.951Z,9.80
2019-05-13T23:09:21.532Z,9.70
2019-05-13T23:11:51.139Z,9.60
2019-05-13T23:14:21.832Z,9.60
2019-05-13T23:16:49.916Z,9.50
2019-05-13T23:19:18.338Z,9.50
2019-05-13T23:21:46.744Z,9.50
2019-05-13T23:24:15.179Z,9.40
2019-05-13T23:26:43.589Z,9.40
2019-05-13T23:29:12.003Z,9.30
2019-05-13T23:31:41.517Z,9.30
2019-05-13T23:34:12.075Z,9.30
2019-05-13T23:36:42.224Z,9.30
2019-05-13T23:39:11.625Z,9.20
2019-05-13T23:41:41.623Z,9.20
2019-05-13T23:44:23.784Z,9.20
2019-05-13T23:46:42.069Z,9.10
2019-05-13T23:49:31.660Z,9.10
2019-05-13T23:52:02.344Z,9.00
2019-05-13T23:54:31.626Z,9.00
2019-05-13T23:57:01.194Z,9.00
2019-05-13T23:59:31.237Z,8.90
